Time;durP1;ratioP1;P1;durP2;ratioP2;P2;SDS_P1;SDS_P2;PMS_P1;PMS_P2;Temp;Humidity;BMP_temperature;BMP_pressure;BME280_temperature;BME280_humidity;BME280_pressure;Samples;Min_cycle;Max_cycle;Signal;HPM_P1;HPM_P2
2021/10/29 00:01:41;;;;;;;;;;;12.00;54.20;;;;;;4360656;32;19974;-37
2021/10/29 00:04:08;;;;;;;;;;;12.00;54.20;;;;;;4360323;32;19982;-37
2021/10/29 00:06:34;;;;;;;;;;;12.00;54.20;;;;;;4360387;32;19977;-37
2021/10/29 00:09:02;;;;;;;;;;;12.00;54.20;;;;;;4360386;32;20388;-37
2021/10/29 00:11:28;;;;;;;;;;;12.00;54.10;;;;;;4360339;32;19986;-38
2021/10/29 00:13:54;;;;;;;;;;;12.10;54.30;;;;;;4360624;32;20046;-36
2021/10/29 00:16:21;;;;;;;;;;;12.10;54.10;;;;;;4360302;32;20040;-36
2021/10/29 00:18:47;;;;;;;;;;;12.00;54.10;;;;;;4373947;32;20020;-37
2021/10/29 00:21:13;;;;;;;;;;;12.00;54.20;;;;;;4375455;32;20378;-36
2021/10/29 00:23:39;;;;;;;;;;;12.00;54.30;;;;;;4374669;32;20351;-37
2021/10/29 00:26:06;;;;;;;;;;;12.10;54.40;;;;;;4374754;32;20423;-36
2021/10/29 00:28:32;;;;;;;;;;;12.10;54.30;;;;;;4374797;32;19966;-36
2021/10/29 00:30:58;;;;;;;;;;;12.20;54.40;;;;;;4375256;32;19973;-36
2021/10/29 00:33:24;;;;;;;;;;;12.20;54.30;;;;;;4375057;32;20053;-36
2021/10/29 00:35:51;;;;;;;;;;;12.20;54.20;;;;;;4375006;32;20131;-36
2021/10/29 00:38:17;;;;;;;;;;;12.30;54.10;;;;;;4374609;32;20379;-37
2021/10/29 00:40:43;;;;;;;;;;;12.30;54.10;;;;;;4374844;32;19973;-36
2021/10/29 00:43:09;;;;;;;;;;;12.30;54.10;;;;;;4374921;32;19970;-37
2021/10/29 00:45:36;;;;;;;;;;;12.30;54.10;;;;;;4360663;32;19970;-37
2021/10/29 00:48:02;;;;;;;;;;;12.30;54.10;;;;;;4374855;32;20007;-38
2021/10/29 00:50:28;;;;;;;;;;;12.40;54.30;;;;;;4375219;32;19966;-38
2021/10/29 00:52:55;;;;;;;;;;;12.40;54.10;;;;;;4374799;32;19966;-36
2021/10/29 00:55:22;;;;;;;;;;;12.40;54.10;;;;;;4360452;32;20434;-37
2021/10/29 00:57:50;;;;;;;;;;;12.40;54.10;;;;;;4374535;32;19981;-37
2021/10/29 01:00:16;;;;;;;;;;;12.40;54.00;;;;;;4374336;32;19985;-37
2021/10/29 01:02:43;;;;;;;;;;;12.50;54.00;;;;;;4374439;32;19978;-37
2021/10/29 01:05:09;;;;;;;;;;;12.50;54.20;;;;;;4374092;32;19985;-36
2021/10/29 01:07:35;;;;;;;;;;;12.50;54.30;;;;;;4374639;32;19962;-37
2021/10/29 01:10:02;;;;;;;;;;;12.60;54.30;;;;;;4374469;32;20039;-38
2021/10/29 01:12:28;;;;;;;;;;;12.60;54.30;;;;;;4374532;32;19968;-37
2021/10/29 01:14:58;;;;;;;;;;;12.70;54.10;;;;;;4374159;32;20045;-37
2021/10/29 01:17:24;;;;;;;;;;;12.70;54.10;;;;;;4374335;32;19971;-37
2021/10/29 01:19:53;;;;;;;;;;;12.80;54.10;;;;;;4374426;32;19960;-38
2021/10/29 01:22:19;;;;;;;;;;;12.80;54.00;;;;;;4374792;32;19969;-37
2021/10/29 01:24:45;;;;;;;;;;;12.90;53.90;;;;;;4374119;32;20386;-38
2021/10/29 01:27:12;;;;;;;;;;;12.90;53.80;;;;;;4373895;32;20066;-38
2021/10/29 01:29:38;;;;;;;;;;;12.90;53.80;;;;;;4360391;32;20058;-38
2021/10/29 01:32:06;;;;;;;;;;;12.90;53.60;;;;;;4360041;32;20069;-38
2021/10/29 01:34:35;;;;;;;;;;;12.90;53.50;;;;;;4374044;32;20045;-37
2021/10/29 01:37:02;;;;;;;;;;;12.90;53.50;;;;;;4373999;32;20419;-38
2021/10/29 01:39:28;;;;;;;;;;;12.80;53.50;;;;;;4374112;32;19962;-38
2021/10/29 01:41:54;;;;;;;;;;;12.90;53.70;;;;;;4373541;32;19958;-37
2021/10/29 01:44:20;;;;;;;;;;;12.90;53.80;;;;;;4373781;32;19978;-38
2021/10/29 01:46:48;;;;;;;;;;;13.00;53.70;;;;;;4373436;32;20443;-38
2021/10/29 01:49:14;;;;;;;;;;;13.00;53.60;;;;;;4373685;32;19980;-38
2021/10/29 01:51:40;;;;;;;;;;;13.10;53.60;;;;;;4373691;32;20369;-38
2021/10/29 01:54:07;;;;;;;;;;;13.10;53.50;;;;;;4373948;32;19966;-37
2021/10/29 01:56:33;;;;;;;;;;;13.20;53.40;;;;;;4373679;32;20423;-38
2021/10/29 01:58:59;;;;;;;;;;;13.20;53.30;;;;;;4373489;32;19966;-37
2021/10/29 02:01:25;;;;;;;;;;;13.30;53.30;;;;;;4373574;32;19966;-38
2021/10/29 02:03:52;;;;;;;;;;;13.30;53.30;;;;;;4373372;32;20007;-38
2021/10/29 02:06:18;;;;;;;;;;;13.30;53.30;;;;;;4373450;32;19978;-38
2021/10/29 02:08:46;;;;;;;;;;;13.40;53.20;;;;;;4360089;32;19966;-38
2021/10/29 02:11:12;;;;;;;;;;;13.40;53.10;;;;;;4373222;32;19986;-38
2021/10/29 02:13:38;;;;;;;;;;;13.50;53.00;;;;;;4373702;32;20025;-37
2021/10/29 02:16:05;;;;;;;;;;;13.50;52.90;;;;;;4355855;32;20005;-37
2021/10/29 02:18:31;;;;;;;;;;;13.40;52.90;;;;;;4356091;32;19973;-37
2021/10/29 02:20:57;;;;;;;;;;;13.40;52.90;;;;;;4356029;32;19978;-37
2021/10/29 02:23:23;;;;;;;;;;;13.40;52.90;;;;;;4356162;32;19970;-38
2021/10/29 02:25:50;;;;;;;;;;;13.30;52.80;;;;;;4355822;32;20093;-37
2021/10/29 02:28:17;;;;;;;;;;;13.30;52.90;;;;;;4355823;32;20093;-37
2021/10/29 02:30:44;;;;;;;;;;;13.20;52.90;;;;;;4343670;32;19992;-38
2021/10/29 02:33:10;;;;;;;;;;;13.20;53.10;;;;;;4356090;32;20470;-39
2021/10/29 02:35:36;;;;;;;;;;;13.10;53.20;;;;;;4355628;32;19977;-38
2021/10/29 02:38:02;;;;;;;;;;;13.00;53.40;;;;;;4355792;32;19990;-38
2021/10/29 02:40:29;;;;;;;;;;;13.00;53.60;;;;;;4356253;32;19990;-37
2021/10/29 02:42:55;;;;;;;;;;;12.90;53.80;;;;;;4355780;32;20524;-37
2021/10/29 02:45:22;;;;;;;;;;;12.90;53.90;;;;;;4359747;32;20105;-37
2021/10/29 02:47:48;;;;;;;;;;;12.80;54.00;;;;;;4372431;32;20016;-36
2021/10/29 02:50:18;;;;;;;;;;;12.80;54.20;;;;;;4373038;32;19982;-39
2021/10/29 02:52:45;;;;;;;;;;;12.80;54.30;;;;;;4373067;32;19985;-38
2021/10/29 02:55:11;;;;;;;;;;;12.70;54.40;;;;;;4371338;32;19958;-38
2021/10/29 02:57:37;;;;;;;;;;;12.70;54.60;;;;;;4371457;32;20092;-38
2021/10/29 03:00:05;;;;;;;;;;;12.70;54.70;;;;;;4356065;32;20016;-38
2021/10/29 03:02:33;;;;;;;;;;;12.60;54.70;;;;;;4358662;32;20480;-39
2021/10/29 03:05:03;;;;;;;;;;;12.60;54.80;;;;;;4358638;32;20491;-39
2021/10/29 03:07:29;;;;;;;;;;;12.60;55.00;;;;;;4358507;32;20418;-39
2021/10/29 03:09:56;;;;;;;;;;;12.50;55.20;;;;;;4358543;32;19986;-39
2021/10/29 03:12:22;;;;;;;;;;;12.40;55.40;;;;;;4358637;32;19978;-39
2021/10/29 03:14:48;;;;;;;;;;;12.30;55.50;;;;;;4358241;32;20013;-39
2021/10/29 03:17:15;;;;;;;;;;;12.30;55.70;;;;;;4358173;32;20429;-40
2021/10/29 03:19:41;;;;;;;;;;;12.30;56.00;;;;;;4358604;32;20012;-39
2021/10/29 03:22:07;;;;;;;;;;;12.20;56.70;;;;;;4358603;32;20415;-38
2021/10/29 03:24:34;;;;;;;;;;;12.20;56.20;;;;;;4346161;32;20028;-38
2021/10/29 03:27:00;;;;;;;;;;;12.20;56.30;;;;;;4346090;32;20000;-37
2021/10/29 03:29:26;;;;;;;;;;;12.20;56.50;;;;;;4358299;32;20117;-38
2021/10/29 03:31:53;;;;;;;;;;;12.20;56.50;;;;;;4372934;32;19977;-39
2021/10/29 03:34:19;;;;;;;;;;;12.20;56.60;;;;;;4375933;32;19997;-39
2021/10/29 03:36:46;;;;;;;;;;;12.10;56.80;;;;;;4373855;32;20039;-39
2021/10/29 03:39:16;;;;;;;;;;;12.10;57.00;;;;;;4375559;32;20039;-38
2021/10/29 03:41:51;;;;;;;;;;;12.10;57.10;;;;;;4375895;32;19982;-39
2021/10/29 03:46:50;;;;;;;;;;;12.00;57.40;;;;;;4375087;32;20001;-39
2021/10/29 03:49:28;;;;;;;;;;;11.90;57.60;;;;;;4375754;32;19982;-38
2021/10/29 03:51:59;;;;;;;;;;;11.90;57.90;;;;;;4375472;32;20402;-40
2021/10/29 03:54:31;;;;;;;;;;;11.80;58.10;;;;;;4375430;32;20082;-39
2021/10/29 03:59:30;;;;;;;;;;;11.70;58.70;;;;;;4375394;32;19965;-40
2021/10/29 04:01:57;;;;;;;;;;;11.70;58.90;;;;;;4361595;32;20409;-40
2021/10/29 04:04:23;;;;;;;;;;;11.70;59.10;;;;;;4375087;32;19977;-39
2021/10/29 04:06:50;;;;;;;;;;;11.70;59.50;;;;;;4374834;32;20369;-38
2021/10/29 04:09:16;;;;;;;;;;;11.70;59.40;;;;;;4375223;32;19997;-39
2021/10/29 04:11:46;;;;;;;;;;;11.60;59.60;;;;;;4375035;32;20017;-39
2021/10/29 04:14:12;;;;;;;;;;;11.50;59.70;;;;;;4361664;32;19958;-38
2021/10/29 04:16:40;;;;;;;;;;;11.50;59.90;;;;;;4375315;32;20359;-38
2021/10/29 04:19:08;;;;;;;;;;;11.50;59.90;;;;;;4375280;32;20024;-39
2021/10/29 04:21:35;;;;;;;;;;;11.50;59.90;;;;;;4375297;32;19966;-45
2021/10/29 04:24:02;;;;;;;;;;;11.50;59.90;;;;;;4374914;32;20454;-40
2021/10/29 04:26:28;;;;;;;;;;;11.50;59.90;;;;;;4375015;32;19969;-40
2021/10/29 04:28:56;;;;;;;;;;;11.60;59.90;;;;;;4374954;32;20070;-40
2021/10/29 04:31:25;;;;;;;;;;;11.50;59.60;;;;;;4374798;32;19962;-40
2021/10/29 04:33:51;;;;;;;;;;;11.50;59.60;;;;;;4374857;32;19977;-40
2021/10/29 04:36:18;;;;;;;;;;;11.50;59.50;;;;;;4375071;32;19962;-39
2021/10/29 04:38:47;;;;;;;;;;;11.50;59.60;;;;;;4361102;32;19976;-41
2021/10/29 04:41:14;;;;;;;;;;;11.50;59.60;;;;;;4374514;32;19970;-39
2021/10/29 04:43:41;;;;;;;;;;;11.40;59.50;;;;;;4374731;32;19963;-40
2021/10/29 04:46:07;;;;;;;;;;;11.40;60.00;;;;;;4373312;32;19959;-40
2021/10/29 04:48:34;;;;;;;;;;;11.40;60.00;;;;;;4374921;32;20016;-40
2021/10/29 04:51:00;;;;;;;;;;;11.40;60.10;;;;;;4360581;32;20054;-39
2021/10/29 04:53:26;;;;;;;;;;;11.30;60.20;;;;;;4373323;32;20379;-39
2021/10/29 04:55:53;;;;;;;;;;;11.30;60.60;;;;;;4374313;32;19962;-40
2021/10/29 04:58:19;;;;;;;;;;;11.30;60.90;;;;;;4374511;32;19970;-42
2021/10/29 05:00:46;;;;;;;;;;;11.20;61.10;;;;;;4374075;32;19969;-38
2021/10/29 05:03:12;;;;;;;;;;;11.10;61.20;;;;;;4374545;32;19998;-40
2021/10/29 05:05:39;;;;;;;;;;;10.90;61.60;;;;;;4374562;32;19966;-40
2021/10/29 05:08:05;;;;;;;;;;;10.90;62.20;;;;;;4374451;32;19966;-39
2021/10/29 05:10:32;;;;;;;;;;;10.90;62.50;;;;;;4374217;32;20017;-38
2021/10/29 05:12:59;;;;;;;;;;;10.80;62.70;;;;;;4374240;32;19969;-38
2021/10/29 05:15:25;;;;;;;;;;;10.90;62.80;;;;;;4374467;32;19974;-40
2021/10/29 05:17:53;;;;;;;;;;;10.80;62.80;;;;;;4372155;32;19961;-40
2021/10/29 05:20:22;;;;;;;;;;;10.80;62.80;;;;;;4374319;32;19964;-39
2021/10/29 05:22:48;;;;;;;;;;;10.70;63.00;;;;;;4373799;32;20049;-39
2021/10/29 05:25:14;;;;;;;;;;;10.70;63.30;;;;;;4374109;32;20057;-39
2021/10/29 05:27:40;;;;;;;;;;;10.80;63.20;;;;;;4373885;32;19959;-39
2021/10/29 05:30:08;;;;;;;;;;;10.80;63.10;;;;;;4374065;32;19966;-39
2021/10/29 05:32:35;;;;;;;;;;;10.80;62.90;;;;;;4374149;32;19966;-38
2021/10/29 05:35:01;;;;;;;;;;;10.60;62.10;;;;;;4373930;32;20045;-38
2021/10/29 05:37:31;;;;;;;;;;;10.50;62.20;;;;;;4374251;32;20012;-38
2021/10/29 05:39:58;;;;;;;;;;;10.30;62.80;;;;;;4374090;32;19974;-39
2021/10/29 05:42:25;;;;;;;;;;;10.20;62.20;;;;;;4373757;32;20127;-40
2021/10/29 05:44:51;;;;;;;;;;;10.10;62.00;;;;;;4373414;32;20429;-39
2021/10/29 05:47:18;;;;;;;;;;;9.90;62.00;;;;;;4373758;32;20045;-40
2021/10/29 05:49:44;;;;;;;;;;;9.90;62.10;;;;;;4373845;32;19982;-40
2021/10/29 05:52:21;;;;;;;;;;;9.70;61.70;;;;;;4373422;32;19968;-41
2021/10/29 05:57:20;;;;;;;;;;;9.50;61.10;;;;;;4373581;32;19985;-40
2021/10/29 05:59:51;;;;;;;;;;;9.40;61.10;;;;;;4373509;32;19998;-38
2021/10/29 06:02:17;;;;;;;;;;;9.30;60.80;;;;;;4370857;32;19969;-41
2021/10/29 06:04:44;;;;;;;;;;;9.30;61.30;;;;;;4371379;32;20129;-41
2021/10/29 06:07:10;;;;;;;;;;;9.30;61.60;;;;;;4371144;32;19970;-39
2021/10/29 06:09:36;;;;;;;;;;;9.30;61.90;;;;;;4370602;32;20059;-40
2021/10/29 06:12:02;;;;;;;;;;;9.40;61.90;;;;;;4371295;32;20395;-40
2021/10/29 06:14:29;;;;;;;;;;;9.30;61.70;;;;;;4371277;32;19977;-41
2021/10/29 06:16:57;;;;;;;;;;;9.40;61.40;;;;;;4370719;32;20017;-41
2021/10/29 06:19:24;;;;;;;;;;;9.30;60.50;;;;;;4356098;32;19986;-40
2021/10/29 06:24:47;;;;;;;;;;;9.20;61.20;;;;;;4326136;33;19978;-40
2021/10/29 06:29:45;;;;;;;;;;;9.00;60.40;;;;;;4326263;33;20046;-40
2021/10/29 06:32:12;;;;;;;;;;;9.00;60.70;;;;;;4313916;33;19977;-40
2021/10/29 06:34:38;;;;;;;;;;;8.90;60.30;;;;;;4315478;33;20485;-40
2021/10/29 06:37:06;;;;;;;;;;;8.90;60.50;;;;;;4299150;33;20049;-39
2021/10/29 06:39:32;;;;;;;;;;;8.90;60.70;;;;;;4294059;33;20012;-39
2021/10/29 06:42:03;;;;;;;;;;;8.90;60.80;;;;;;4297517;33;20010;-38
2021/10/29 06:47:37;;;;;;;;;;;8.70;60.60;;;;;;4299669;33;20530;-38
2021/10/29 07:01:05;;;;;;;;;;;8.50;62.70;;;;;;4319204;33;19981;-41
2021/10/29 07:41:41;;;;;;;;;;;8.50;60.90;;;;;;4375289;32;19977;-41
2021/10/29 07:44:15;;;;;;;;;;;8.50;60.80;;;;;;4375738;32;19997;-42
2021/10/29 07:46:42;;;;;;;;;;;8.40;60.50;;;;;;4375167;32;19962;-40
2021/10/29 07:49:08;;;;;;;;;;;8.30;60.80;;;;;;4375609;32;20047;-41
2021/10/29 07:51:38;;;;;;;;;;;8.30;61.30;;;;;;4375328;32;19984;-40
2021/10/29 07:54:08;;;;;;;;;;;8.30;61.30;;;;;;4375394;32;19974;-42
2021/10/29 07:56:34;;;;;;;;;;;8.40;61.00;;;;;;4375350;32;19989;-41
2021/10/29 07:59:01;;;;;;;;;;;8.40;61.00;;;;;;4373304;32;19962;-44
2021/10/29 08:01:27;;;;;;;;;;;8.40;60.90;;;;;;4375286;32;20447;-40
2021/10/29 08:03:53;;;;;;;;;;;8.40;60.80;;;;;;4375564;32;19970;-41
2021/10/29 08:06:20;;;;;;;;;;;8.30;60.20;;;;;;4375676;32;19989;-42
2021/10/29 08:08:46;;;;;;;;;;;8.30;60.70;;;;;;4374824;32;19966;-43
2021/10/29 08:11:14;;;;;;;;;;;8.20;60.10;;;;;;4374973;32;19965;-42
2021/10/29 08:13:40;;;;;;;;;;;8.20;60.50;;;;;;4374712;32;19977;-42
2021/10/29 08:16:06;;;;;;;;;;;8.10;60.30;;;;;;4375226;32;19970;-43
2021/10/29 08:18:40;;;;;;;;;;;8.10;60.60;;;;;;4385327;32;19981;-42
2021/10/29 08:21:07;;;;;;;;;;;8.20;60.70;;;;;;4390038;32;20102;-42
2021/10/29 08:23:33;;;;;;;;;;;8.20;60.50;;;;;;4375811;32;20053;-43
2021/10/29 08:25:59;;;;;;;;;;;8.30;60.60;;;;;;4390010;32;19973;-42
2021/10/29 08:28:25;;;;;;;;;;;8.40;60.10;;;;;;4390160;32;19958;-39
2021/10/29 08:30:51;;;;;;;;;;;8.40;59.30;;;;;;4389744;32;19996;-43
2021/10/29 08:33:18;;;;;;;;;;;8.30;59.20;;;;;;4389715;32;19999;-42
2021/10/29 08:35:44;;;;;;;;;;;8.30;59.50;;;;;;4389529;32;19978;-43
2021/10/29 08:38:11;;;;;;;;;;;8.30;59.40;;;;;;4389219;32;20463;-45
2021/10/29 08:40:37;;;;;;;;;;;8.40;59.50;;;;;;4389195;32;20004;-47
2021/10/29 08:43:04;;;;;;;;;;;8.40;58.80;;;;;;4389306;32;20422;-46
2021/10/29 08:45:30;;;;;;;;;;;8.40;58.70;;;;;;4384753;32;19974;-46
2021/10/29 08:47:56;;;;;;;;;;;8.40;58.70;;;;;;4361039;32;19963;-38
2021/10/29 08:50:22;;;;;;;;;;;8.40;58.60;;;;;;4361123;32;19970;-47
2021/10/29 08:52:49;;;;;;;;;;;8.30;58.50;;;;;;4374293;32;19990;-48
2021/10/29 08:55:23;;;;;;;;;;;8.30;58.40;;;;;;4374402;32;19973;-47
2021/10/29 08:57:50;;;;;;;;;;;8.40;58.40;;;;;;4373972;32;20005;-44
2021/10/29 09:00:22;;;;;;;;;;;8.60;57.90;;;;;;4374295;32;19978;-43
2021/10/29 09:03:12;;;;;;;;;;;8.60;57.00;;;;;;4374519;32;20383;-44
2021/10/29 09:05:53;;;;;;;;;;;8.60;57.10;;;;;;4373917;32;19977;-43
2021/10/29 09:11:05;;;;;;;;;;;8.50;56.80;;;;;;4373753;32;20046;-44
2021/10/29 09:32:54;;;;;;;;;;;8.10;57.10;;;;;;4373546;32;20066;-46
2021/10/29 09:35:22;;;;;;;;;;;8.10;57.80;;;;;;4374039;32;19966;-45
2021/10/29 09:38:09;;;;;;;;;;;8.10;57.30;;;;;;4373793;32;19961;-45
2021/10/29 09:40:53;;;;;;;;;;;8.20;57.40;;;;;;4373324;32;19982;-46
2021/10/29 09:43:21;;;;;;;;;;;8.20;57.00;;;;;;4373646;32;20079;-44
2021/10/29 09:46:12;;;;;;;;;;;8.10;56.90;;;;;;4373655;32;19957;-44
2021/10/29 09:48:51;;;;;;;;;;;8.10;57.10;;;;;;4373352;32;19966;-45
2021/10/29 09:51:20;;;;;;;;;;;8.10;57.50;;;;;;4373152;32;20399;-47
2021/10/29 09:58:47;;;;;;;;;;;8.10;57.60;;;;;;4373545;32;19966;-46
2021/10/29 10:01:13;;;;;;;;;;;8.10;57.60;;;;;;4374034;32;20067;-44
2021/10/29 10:03:41;;;;;;;;;;;8.10;57.50;;;;;;4373285;32;19963;-46
2021/10/29 10:06:08;;;;;;;;;;;8.10;57.80;;;;;;4371881;32;20433;-46
2021/10/29 10:08:35;;;;;;;;;;;8.20;57.70;;;;;;4373074;32;20005;-45
2021/10/29 10:11:01;;;;;;;;;;;8.20;57.50;;;;;;4371664;32;20490;-41
2021/10/29 10:13:28;;;;;;;;;;;8.30;57.60;;;;;;4373870;32;19977;-45
2021/10/29 10:15:56;;;;;;;;;;;8.30;57.00;;;;;;4373214;32;19989;-45
2021/10/29 10:18:23;;;;;;;;;;;8.40;56.70;;;;;;4383076;32;20001;-45
2021/10/29 10:20:51;;;;;;;;;;;8.40;56.50;;;;;;4388430;32;20033;-44
2021/10/29 10:23:26;;;;;;;;;;;8.50;56.50;;;;;;4388529;32;19999;-44
2021/10/29 10:46:20;;;;;;;;;;;8.60;54.80;;;;;;4380817;32;20471;-46
2021/10/29 10:51:48;;;;;;;;;;;8.70;54.10;;;;;;4373079;32;20385;-42
2021/10/29 10:57:00;;;;;;;;;;;8.50;53.20;;;;;;4373112;32;19971;-46
2021/10/29 11:10:16;;;;;;;;;;;8.50;52.00;;;;;;4358915;32;19982;-45
2021/10/29 11:12:45;;;;;;;;;;;8.50;52.40;;;;;;4373135;32;20041;-47
2021/10/29 11:15:18;;;;;;;;;;;8.50;53.00;;;;;;4373130;32;19966;-46
2021/10/29 11:18:14;;;;;;;;;;;8.50;53.00;;;;;;4372545;32;20016;-46
2021/10/29 11:23:11;;;;;;;;;;;8.60;52.80;;;;;;4375943;32;19965;-45
2021/10/29 11:25:56;;;;;;;;;;;8.70;52.10;;;;;;4375321;32;19985;-45
2021/10/29 11:28:26;;;;;;;;;;;8.70;51.60;;;;;;4375549;32;20433;-45
2021/10/29 11:30:56;;;;;;;;;;;8.70;51.70;;;;;;4374907;32;20017;-47
2021/10/29 11:33:23;;;;;;;;;;;8.70;51.20;;;;;;4375583;32;19963;-46
2021/10/29 11:36:00;;;;;;;;;;;8.70;51.10;;;;;;4375314;32;20442;-46
2021/10/29 11:38:26;;;;;;;;;;;8.60;51.20;;;;;;4375487;32;20420;-48
2021/10/29 11:40:53;;;;;;;;;;;8.70;51.60;;;;;;4375817;32;19989;-47
2021/10/29 11:43:37;;;;;;;;;;;8.70;51.20;;;;;;4375142;32;19980;-46
2021/10/29 11:46:09;;;;;;;;;;;8.70;51.10;;;;;;4375530;32;19974;-44
2021/10/29 11:48:36;;;;;;;;;;;8.70;51.10;;;;;;4375770;32;19981;-46
2021/10/29 11:51:10;;;;;;;;;;;8.60;51.00;;;;;;4373781;32;19982;-47
2021/10/29 11:53:42;;;;;;;;;;;8.60;50.90;;;;;;4375742;32;19990;-42
2021/10/29 11:56:35;;;;;;;;;;;8.60;50.60;;;;;;4374992;32;20015;-45
2021/10/29 11:59:14;;;;;;;;;;;8.50;50.60;;;;;;4374575;32;19986;-47
2021/10/29 12:07:18;;;;;;;;;;;8.30;50.40;;;;;;4360088;32;19977;-48
2021/10/29 12:09:46;;;;;;;;;;;8.10;50.50;;;;;;4375562;32;20045;-47
2021/10/29 12:12:15;;;;;;;;;;;8.00;50.90;;;;;;4375095;32;20043;-45
2021/10/29 12:14:44;;;;;;;;;;;7.90;51.40;;;;;;4375407;32;19966;-50
2021/10/29 12:17:16;;;;;;;;;;;7.80;51.60;;;;;;4376221;32;20397;-47
2021/10/29 12:19:43;;;;;;;;;;;7.70;51.80;;;;;;4376651;32;20049;-45
2021/10/29 12:24:46;;;;;;;;;;;7.50;52.30;;;;;;4389907;32;19973;-44
2021/10/29 12:27:27;;;;;;;;;;;7.40;52.30;;;;;;4389915;32;19977;-47
2021/10/29 12:30:19;;;;;;;;;;;7.40;52.30;;;;;;4389760;32;20009;-46
2021/10/29 13:03:40;;;;;;;;;;;6.90;51.00;;;;;;4342234;33;19977;-44
2021/10/29 13:06:07;;;;;;;;;;;6.80;51.30;;;;;;4342008;32;20120;-44
2021/10/29 13:08:39;;;;;;;;;;;6.90;51.40;;;;;;4341621;32;19967;-45
2021/10/29 13:11:06;;;;;;;;;;;6.80;51.20;;;;;;4341776;32;20054;-45
2021/10/29 13:14:07;;;;;;;;;;;6.80;51.30;;;;;;4342074;32;19975;-45
2021/10/29 13:16:26;;;;;;;;;;;6.90;51.30;;;;;;4340036;33;19990;-48
2021/10/29 13:37:18;;;;;;;;;;;6.80;51.30;;;;;;4358677;32;19990;-47
2021/10/29 13:51:00;;;;;;;;;;;7.10;51.00;;;;;;4358569;32;20063;-45
2021/10/29 13:53:39;;;;;;;;;;;7.20;51.00;;;;;;4358466;32;19966;-46
2021/10/29 13:57:03;;;;;;;;;;;7.30;50.90;;;;;;4358662;32;20399;-44
2021/10/29 14:01:53;;;;;;;;;;;7.40;50.30;;;;;;4358322;32;19970;-44
2021/10/29 14:32:20;;;;;;;;;;;7.20;49.60;;;;;;4341613;32;20005;-46
2021/10/29 14:34:51;;;;;;;;;;;7.20;49.70;;;;;;4373084;32;20035;-44
2021/10/29 14:40:05;;;;;;;;;;;7.30;49.20;;;;;;4373263;32;19969;-44
2021/10/29 14:42:41;;;;;;;;;;;7.30;49.00;;;;;;4373511;32;19957;-44
2021/10/29 14:45:16;;;;;;;;;;;7.30;48.80;;;;;;4361979;32;20458;-45
2021/10/29 14:48:05;;;;;;;;;;;7.30;48.90;;;;;;4375267;32;20044;-44
2021/10/29 14:51:06;;;;;;;;;;;7.20;48.40;;;;;;4387792;32;19962;-44
2021/10/29 15:02:12;;;;;;;;;;;7.10;48.30;;;;;;4390554;32;20020;-44
2021/10/29 15:04:43;;;;;;;;;;;7.10;48.20;;;;;;4390612;32;20406;-43
2021/10/29 15:15:42;;;;;;;;;;;7.10;48.20;;;;;;4390694;32;19961;-43
2021/10/29 15:18:17;;;;;;;;;;;7.10;48.30;;;;;;4378574;32;20369;-43
2021/10/29 15:26:38;;;;;;;;;;;7.20;48.30;;;;;;4390195;32;19965;-45
2021/10/29 15:29:14;;;;;;;;;;;7.20;48.10;;;;;;4390331;32;19973;-45
2021/10/29 15:32:07;;;;;;;;;;;7.20;48.00;;;;;;4390768;32;19958;-44
2021/10/29 15:45:33;;;;;;;;;;;7.30;48.00;;;;;;4387275;32;19969;-44
2021/10/29 15:48:05;;;;;;;;;;;7.30;48.00;;;;;;4375291;32;19966;-44
2021/10/29 15:50:34;;;;;;;;;;;7.30;48.00;;;;;;4375312;32;20383;-44
2021/10/29 15:53:01;;;;;;;;;;;7.30;47.80;;;;;;4375354;32;19975;-44
2021/10/29 15:55:36;;;;;;;;;;;7.30;47.80;;;;;;4361303;32;20047;-44
2021/10/29 15:58:18;;;;;;;;;;;7.30;47.90;;;;;;4375171;32;20447;-46
2021/10/29 16:17:05;;;;;;;;;;;7.70;48.00;;;;;;4375107;32;19977;-46
2021/10/29 16:19:33;;;;;;;;;;;7.70;48.00;;;;;;4375025;32;19973;-44
2021/10/29 16:22:03;;;;;;;;;;;7.70;48.00;;;;;;4375203;32;19973;-45
2021/10/29 16:24:29;;;;;;;;;;;7.80;48.00;;;;;;4375006;32;20045;-43
2021/10/29 16:26:56;;;;;;;;;;;7.90;48.00;;;;;;4374647;32;20414;-46
2021/10/29 16:29:25;;;;;;;;;;;7.90;48.00;;;;;;4375449;32;20150;-42
2021/10/29 16:31:53;;;;;;;;;;;8.00;48.00;;;;;;4375236;32;20422;-45
2021/10/29 16:34:19;;;;;;;;;;;8.00;47.80;;;;;;4374753;32;20008;-44
2021/10/29 16:36:46;;;;;;;;;;;8.00;47.80;;;;;;4374396;32;20091;-43
2021/10/29 16:39:12;;;;;;;;;;;8.00;47.80;;;;;;4374461;32;19966;-44
2021/10/29 16:41:38;;;;;;;;;;;8.00;47.80;;;;;;4374558;32;19955;-44
2021/10/29 16:44:05;;;;;;;;;;;8.00;47.80;;;;;;4374880;32;19992;-45
2021/10/29 16:46:31;;;;;;;;;;;8.00;47.80;;;;;;4374468;32;19959;-46
2021/10/29 16:48:57;;;;;;;;;;;8.00;47.80;;;;;;4372886;32;19956;-47
2021/10/29 16:51:25;;;;;;;;;;;8.00;47.80;;;;;;4374849;32;20049;-41
2021/10/29 16:53:51;;;;;;;;;;;8.00;47.80;;;;;;4373291;32;19966;-45
2021/10/29 16:56:18;;;;;;;;;;;8.00;47.90;;;;;;4374733;32;19969;-48
2021/10/29 16:58:46;;;;;;;;;;;8.00;47.90;;;;;;4374158;32;20350;-48
2021/10/29 17:01:12;;;;;;;;;;;7.90;48.00;;;;;;4374417;32;19982;-48
2021/10/29 17:03:38;;;;;;;;;;;7.90;48.00;;;;;;4374322;32;19983;-46
2021/10/29 17:06:04;;;;;;;;;;;7.90;48.00;;;;;;4374525;32;19970;-46
2021/10/29 17:08:31;;;;;;;;;;;7.90;48.20;;;;;;4374298;32;20453;-45
2021/10/29 17:10:57;;;;;;;;;;;7.90;48.20;;;;;;4373960;32;20104;-47
2021/10/29 17:13:24;;;;;;;;;;;7.90;48.30;;;;;;4374711;32;19969;-47
2021/10/29 17:15:50;;;;;;;;;;;7.90;48.40;;;;;;4373204;32;19967;-47
2021/10/29 17:18:17;;;;;;;;;;;8.00;48.40;;;;;;4381942;32;20008;-46
2021/10/29 17:20:43;;;;;;;;;;;8.00;48.40;;;;;;4388692;32;20399;-46
2021/10/29 17:23:09;;;;;;;;;;;8.00;48.30;;;;;;4389306;32;19970;-47
2021/10/29 17:25:35;;;;;;;;;;;8.10;48.30;;;;;;4388988;32;20046;-45
2021/10/29 17:28:02;;;;;;;;;;;8.10;48.20;;;;;;4389351;32;19950;-47
2021/10/29 17:30:28;;;;;;;;;;;8.10;48.20;;;;;;4389224;32;20081;-45
2021/10/29 17:32:55;;;;;;;;;;;8.10;48.30;;;;;;4389388;32;20494;-46
2021/10/29 17:35:21;;;;;;;;;;;8.10;48.30;;;;;;4388928;32;20405;-44
2021/10/29 17:37:47;;;;;;;;;;;8.10;48.30;;;;;;4388998;32;19981;-47
2021/10/29 17:40:14;;;;;;;;;;;8.10;48.40;;;;;;4388813;32;19989;-44
2021/10/29 17:42:40;;;;;;;;;;;8.10;48.40;;;;;;4388785;32;20115;-49
2021/10/29 17:45:09;;;;;;;;;;;8.10;48.40;;;;;;4386447;32;19973;-44
2021/10/29 17:47:36;;;;;;;;;;;8.10;48.40;;;;;;4373855;32;20036;-43
2021/10/29 17:50:03;;;;;;;;;;;8.10;48.40;;;;;;4373755;32;19973;-46
2021/10/29 17:52:29;;;;;;;;;;;8.10;48.40;;;;;;4374008;32;20406;-43
2021/10/29 17:54:57;;;;;;;;;;;8.10;48.40;;;;;;4373689;32;20017;-44
2021/10/29 17:57:24;;;;;;;;;;;8.10;48.50;;;;;;4374386;32;19962;-44
2021/10/29 17:59:51;;;;;;;;;;;8.10;48.40;;;;;;4373625;32;19970;-44
2021/10/29 18:02:24;;;;;;;;;;;8.10;48.50;;;;;;4373721;32;19997;-43
2021/10/29 18:04:52;;;;;;;;;;;8.10;48.60;;;;;;4360851;32;20062;-44
2021/10/29 18:07:20;;;;;;;;;;;8.00;48.70;;;;;;4373607;32;19990;-45
2021/10/29 18:09:48;;;;;;;;;;;8.00;48.80;;;;;;4373957;32;20061;-45
2021/10/29 18:12:14;;;;;;;;;;;8.00;48.90;;;;;;4373341;32;20474;-45
2021/10/29 18:14:41;;;;;;;;;;;8.00;48.90;;;;;;4373835;32;19970;-45
2021/10/29 18:17:08;;;;;;;;;;;8.10;49.00;;;;;;4373439;32;19962;-45
2021/10/29 18:19:35;;;;;;;;;;;8.10;48.90;;;;;;4374184;32;19970;-45
2021/10/29 18:22:02;;;;;;;;;;;8.10;48.90;;;;;;4374077;32;19958;-46
2021/10/29 18:24:28;;;;;;;;;;;8.10;48.80;;;;;;4373915;32;19986;-45
2021/10/29 18:26:54;;;;;;;;;;;8.00;48.80;;;;;;4373870;32;20041;-45
2021/10/29 18:29:21;;;;;;;;;;;8.00;48.80;;;;;;4373500;32;19955;-45
2021/10/29 18:31:47;;;;;;;;;;;8.00;48.90;;;;;;4373509;32;19993;-44
2021/10/29 18:34:13;;;;;;;;;;;8.00;49.00;;;;;;4373453;32;19968;-44
2021/10/29 18:36:39;;;;;;;;;;;8.00;49.00;;;;;;4373257;32;19973;-46
2021/10/29 18:39:06;;;;;;;;;;;7.90;48.90;;;;;;4373538;32;20029;-44
2021/10/29 18:41:33;;;;;;;;;;;7.90;48.90;;;;;;4373185;32;19962;-44
2021/10/29 18:44:00;;;;;;;;;;;7.90;49.00;;;;;;4373920;32;19967;-44
2021/10/29 18:46:26;;;;;;;;;;;7.90;49.00;;;;;;4373650;32;19962;-45
2021/10/29 18:48:52;;;;;;;;;;;7.80;49.00;;;;;;4373308;32;19969;-44
2021/10/29 18:51:19;;;;;;;;;;;7.80;49.00;;;;;;4373046;32;20492;-44
2021/10/29 18:53:45;;;;;;;;;;;7.70;49.00;;;;;;4373497;32;20037;-44
2021/10/29 18:56:11;;;;;;;;;;;7.70;49.10;;;;;;4373127;32;20048;-44
2021/10/29 18:58:40;;;;;;;;;;;7.70;49.10;;;;;;4373421;32;20386;-42
2021/10/29 19:01:07;;;;;;;;;;;7.70;49.10;;;;;;4373171;32;19965;-44
2021/10/29 19:03:33;;;;;;;;;;;7.60;49.10;;;;;;4373660;32;20398;-44
2021/10/29 19:06:00;;;;;;;;;;;7.60;49.30;;;;;;4373465;32;19966;-44
2021/10/29 19:08:27;;;;;;;;;;;7.50;49.40;;;;;;4359627;32;20437;-44
2021/10/29 19:10:53;;;;;;;;;;;7.50;49.50;;;;;;4373332;32;20363;-44
2021/10/29 19:13:19;;;;;;;;;;;7.50;49.60;;;;;;4373275;32;20028;-45
2021/10/29 19:15:46;;;;;;;;;;;7.40;49.80;;;;;;4373265;32;19965;-44
2021/10/29 19:18:12;;;;;;;;;;;7.40;49.90;;;;;;4381023;32;19976;-45